Time;durP1;ratioP1;P1;durP2;ratioP2;P2;SDS_P1;SDS_P2;PMS_P1;PMS_P2;Temp;Humidity;BMP_temperature;BMP_pressure;BME280_temperature;BME280_humidity;BME280_pressure;Samples;Min_cycle;Max_cycle;Signal;HPM_P1;HPM_P2
2021/12/11 00:00:40;;;;;;;5.57;1.65;;;3.20;82.10;;;1.44;93.77;94651.25;4951918;28;20039;-69
2021/12/11 00:03:07;;;;;;;;;;;3.20;82.30;;;1.44;93.27;94654.63;4952610;28;20064;-68
2021/12/11 00:05:34;;;;;;;4.03;2.00;;;3.20;82.00;;;1.43;93.12;94658.22;4951788;28;19932;-69
2021/12/11 00:08:00;;;;;;;2.63;1.52;;;3.20;82.10;;;1.42;93.14;94659.19;4935527;29;20039;-68
2021/12/11 00:10:37;;;;;;;4.63;2.33;;;3.20;82.00;;;1.43;92.85;94662.59;4935858;28;20042;-68
2021/12/11 00:13:07;;;;;;;3.28;1.55;;;3.20;81.70;;;1.42;92.45;94658.38;4950734;28;20471;-68
2021/12/11 00:15:37;;;;;;;5.40;1.90;;;3.20;81.80;;;1.42;92.44;94673.91;4952068;28;20023;-68
2021/12/11 00:18:07;;;;;;;3.08;1.45;;;3.20;82.00;;;1.41;92.96;94667.13;4950374;28;20039;-68
2021/12/11 00:20:36;;;;;;;6.05;1.40;;;3.20;81.70;;;1.41;92.82;94669.72;4936088;28;20039;-69
2021/12/11 00:23:03;;;;;;;5.78;1.67;;;3.20;81.60;;;1.43;92.43;94683.31;4934817;28;20065;-69
2021/12/11 00:25:28;;;;;;;3.83;1.77;;;3.20;81.70;;;1.43;92.16;94680.72;4958145;28;20413;-68
2021/12/11 00:28:03;;;;;;;3.05;1.40;;;3.20;81.70;;;1.43;91.97;94685.91;4951108;28;20035;-67
2021/12/11 00:30:36;;;;;;;3.53;1.42;;;3.20;81.70;;;1.43;92.21;94691.06;4950938;28;20117;-69
2021/12/11 00:33:06;;;;;;;2.80;1.50;;;3.20;81.60;;;1.45;92.18;94696.91;4950364;28;20043;-68
2021/12/11 00:35:31;;;;;;;5.55;1.60;;;3.20;81.50;;;1.45;92.43;94699.50;4935732;29;20031;-68
2021/12/11 00:38:14;;;;;;;3.83;1.52;;;3.20;81.50;;;1.46;92.18;94706.28;4935044;28;20071;-68
2021/12/11 00:40:40;;;;;;;3.97;1.35;;;3.30;81.60;;;1.46;92.28;94712.28;4951025;28;20058;-68
2021/12/11 00:43:07;;;;;;;2.92;1.40;;;3.30;81.20;;;1.48;92.17;94714.69;4934367;28;20118;-68
2021/12/11 00:45:36;;;;;;;3.15;1.38;;;3.30;81.30;;;1.46;92.37;94714.06;4950558;28;20035;-69
2021/12/11 00:48:10;;;;;;;4.35;1.30;;;3.30;81.10;;;1.49;92.46;94726.66;4934765;28;20043;-68
2021/12/11 00:50:49;;;;;;;3.42;1.40;;;3.30;81.20;;;1.50;91.67;94739.47;4950798;28;20522;-69
2021/12/11 00:53:45;;;;;;;5.38;1.60;;;3.30;81.30;;;1.51;91.66;94729.91;4949898;28;20035;-68
2021/12/11 00:56:16;;;;;;;2.38;1.20;;;3.30;81.00;;;1.51;91.65;94751.44;4950746;28;20495;-68
2021/12/11 00:58:43;;;;;;;2.67;1.20;;;3.30;81.10;;;1.52;91.74;94745.28;4935399;29;20127;-68
2021/12/11 01:01:09;;;;;;;2.35;1.10;;;3.40;80.90;;;1.53;91.25;94748.69;4934160;28;20470;-68
2021/12/11 01:03:42;;;;;;;3.25;1.10;;;3.30;80.70;;;1.53;91.61;94743.50;4951259;28;20039;-69
2021/12/11 01:06:34;;;;;;;3.42;1.35;;;3.30;80.90;;;1.54;91.25;94755.47;4950403;28;20102;-68
2021/12/11 01:09:09;;;;;;;4.18;1.33;;;3.30;81.00;;;1.52;91.56;94760.81;4949330;28;20050;-67
2021/12/11 01:11:51;;;;;;;4.30;1.05;;;3.30;81.00;;;1.55;91.15;94764.88;4934557;28;20042;-68
2021/12/11 01:14:32;;;;;;;2.75;1.25;;;3.30;80.80;;;1.54;90.99;94771.03;4950797;28;20090;-68
2021/12/11 01:17:13;;;;;;;4.53;1.40;;;3.30;80.70;;;1.55;91.11;94777.81;4950263;28;20054;-68
2021/12/11 01:19:41;;;;;;;3.95;1.60;;;3.40;80.70;;;1.53;91.61;94775.41;4950189;28;20050;-68
2021/12/11 01:22:20;;;;;;;2.35;1.20;;;3.40;81.00;;;1.55;91.57;94790.78;4934713;28;20819;-66
2021/12/11 01:24:46;;;;;;;2.45;1.23;;;3.40;80.60;;;1.55;90.90;94780.41;4935842;28;20438;-67
2021/12/11 01:27:19;;;;;;;3.88;1.27;;;3.40;80.50;;;1.55;91.23;94783.00;4949511;28;20499;-68
2021/12/11 01:29:46;;;;;;;4.35;1.40;;;3.30;80.40;;;1.56;90.85;94791.59;4933981;29;20036;-68
2021/12/11 01:32:12;;;;;;;2.42;1.02;;;3.30;80.60;;;1.55;91.05;94806.31;4933523;28;20415;-68
2021/12/11 01:34:38;;;;;;;2.63;1.20;;;3.30;80.70;;;1.56;91.10;94794.97;4933972;28;20093;-68
2021/12/11 01:37:04;;;;;;;3.20;1.15;;;3.30;80.70;;;1.55;91.46;94808.91;4949534;28;20483;-69
2021/12/11 01:39:33;;;;;;;5.32;1.20;;;3.40;80.60;;;1.54;91.13;94804.72;4973412;23;20050;-68
2021/12/11 01:42:00;;;;;;;2.97;1.02;;;3.30;80.70;;;1.48;91.41;94803.59;4953925;28;20034;-69
2021/12/11 01:44:32;;;;;;;2.78;1.50;;;3.30;80.50;;;1.54;90.90;94802.13;4970572;28;20037;-69
2021/12/11 01:47:05;;;;;;;;;;;3.40;80.60;;;1.51;90.84;94815.41;4969303;28;20125;-69
2021/12/11 01:49:32;;;;;;;3.28;1.15;;;3.30;80.50;;;1.51;90.67;94818.00;4968827;28;19918;-70
2021/12/11 01:52:02;;;;;;;2.92;1.10;;;3.30;80.60;;;1.50;90.88;94821.56;4964225;28;20095;-69
2021/12/11 01:54:33;;;;;;;4.65;1.30;;;3.30;80.60;;;1.49;91.22;94830.31;4934316;28;20081;-69
2021/12/11 01:57:04;;;;;;;2.83;0.95;;;3.20;80.60;;;1.47;90.84;94822.69;4941665;28;20071;-67
2021/12/11 01:59:33;;;;;;;2.42;1.23;;;3.20;80.60;;;1.50;90.74;94826.75;4939051;28;20035;-67
2021/12/11 02:02:31;;;;;;;1.95;1.17;;;3.20;80.70;;;1.48;90.76;94839.06;4950359;28;20039;-67
2021/12/11 02:04:57;;;;;;;3.88;1.33;;;3.20;80.50;;;1.48;90.96;94844.25;4967106;28;20387;-66
2021/12/11 02:07:27;;;;;;;3.17;0.90;;;3.20;80.50;;;1.49;90.35;94840.69;4952990;28;20065;-66
2021/12/11 02:09:58;;;;;;;2.25;1.13;;;3.30;80.60;;;1.49;91.04;94845.84;4934728;28;20683;-66
2021/12/11 02:12:32;;;;;;;4.28;1.02;;;3.30;80.60;;;1.48;90.41;94850.22;4970699;28;20042;-67
2021/12/11 02:15:01;;;;;;;3.20;1.20;;;3.20;80.40;;;1.47;90.52;94848.63;4955521;28;20039;-67
2021/12/11 02:17:47;;;;;;;5.13;1.10;;;3.30;80.50;;;1.50;90.29;94852.66;4936735;28;20120;-67
2021/12/11 02:20:19;;;;;;;2.30;1.00;;;3.40;80.40;;;1.49;90.29;94856.22;4935531;28;20036;-69
2021/12/11 02:22:47;;;;;;;1.95;1.00;;;3.40;80.20;;;1.49;90.85;94867.41;4919666;29;20515;-70
2021/12/11 02:25:27;;;;;;;2.75;1.25;;;3.40;80.40;;;1.49;90.20;94861.41;4951212;28;20123;-69
2021/12/11 02:28:29;;;;;;;1.88;0.85;;;3.20;80.20;;;1.48;90.17;94868.38;4949408;28;20035;-69
2021/12/11 02:31:05;;;;;;;2.35;1.08;;;3.30;80.20;;;1.49;90.37;94872.56;4960636;28;20456;-69
2021/12/11 02:33:49;;;;;;;4.03;1.50;;;3.30;80.50;;;1.48;90.82;94875.34;4967915;28;20123;-70
2021/12/11 02:36:32;;;;;;;3.08;1.20;;;3.20;80.40;;;1.46;90.25;94878.09;4961014;28;20067;-69
2021/12/11 02:39:20;;;;;;;2.28;1.17;;;3.20;80.50;;;1.47;90.27;94886.66;4959691;28;20117;-69
2021/12/11 02:42:07;;;;;;;6.53;1.25;;;3.20;80.20;;;1.48;90.62;94885.69;4969848;28;20042;-69
2021/12/11 02:44:41;;;;;;;4.68;1.10;;;3.20;80.40;;;1.47;90.33;94894.44;4969074;28;20434;-69
2021/12/11 02:47:20;;;;;;;2.55;1.48;;;3.20;80.20;;;1.48;90.29;94893.47;4952301;28;20039;-69
2021/12/11 02:49:57;;;;;;;4.68;1.20;;;3.20;80.10;;;1.48;90.33;94899.47;4958660;28;20045;-69
2021/12/11 02:52:40;;;;;;;2.67;1.20;;;3.30;80.10;;;1.49;89.96;94892.50;4966487;28;20043;-69
2021/12/11 02:55:48;;;;;;;2.05;1.13;;;3.20;80.00;;;1.50;89.94;94905.28;4969592;28;20503;-69
2021/12/11 02:58:18;;;;;;;1.75;1.10;;;3.30;80.00;;;1.49;90.18;94905.44;4961741;28;20043;-69
2021/12/11 03:00:57;;;;;;;3.30;1.15;;;3.30;80.10;;;1.50;89.87;94907.06;4953994;28;20043;-69
2021/12/11 03:03:29;;;;;;;4.18;1.50;;;3.30;80.00;;;1.48;89.78;94906.44;4954020;28;20039;-69
2021/12/11 03:06:04;;;;;;;3.45;1.20;;;3.30;80.00;;;1.48;89.83;94912.41;4945657;28;20034;-69
2021/12/11 03:08:29;;;;;;;2.80;1.25;;;3.30;80.00;;;1.50;90.31;94914.84;4954282;28;20047;-69
2021/12/11 03:10:59;;;;;;;4.07;1.30;;;3.30;79.90;;;1.48;90.02;94919.38;4943391;28;20101;-70
2021/12/11 03:13:27;;;;;;;2.83;1.58;;;3.30;80.10;;;1.52;90.05;94923.25;4939734;28;20046;-69
2021/12/11 03:15:53;;;;;;;3.80;1.30;;;3.30;80.00;;;1.50;89.96;94922.63;4956556;28;20035;-70
2021/12/11 03:18:19;;;;;;;4.35;1.27;;;3.30;79.70;;;1.51;89.96;94922.44;4971825;28;20037;-69
2021/12/11 03:20:45;;;;;;;2.55;1.20;;;3.40;79.90;;;1.52;89.68;94924.06;4966703;28;20038;-69
2021/12/11 03:23:11;;;;;;;4.10;1.30;;;3.30;79.90;;;1.52;89.69;94934.44;4941555;28;20086;-69
2021/12/11 03:25:38;;;;;;;5.03;1.00;;;3.30;79.90;;;1.53;89.50;94932.66;4947609;28;20039;-69
2021/12/11 03:28:04;;;;;;;4.20;1.40;;;3.30;79.80;;;1.52;89.35;94942.22;4956595;28;20039;-70
2021/12/11 03:30:39;;;;;;;3.97;1.35;;;3.30;79.70;;;1.53;90.28;94946.41;4955774;28;20039;-69
2021/12/11 03:33:09;;;;;;;3.83;1.20;;;3.30;80.00;;;1.54;89.66;94949.81;4955147;28;20105;-69
2021/12/11 03:35:35;;;;;;;3.25;1.25;;;3.40;79.80;;;1.51;89.57;94937.19;4955752;28;20038;-69
2021/12/11 03:38:01;;;;;;;3.28;1.30;;;3.30;80.00;;;1.52;89.46;94951.75;4925921;29;20044;-70
2021/12/11 03:40:27;;;;;;;2.13;1.42;;;3.30;80.10;;;1.53;90.16;94961.16;4961499;28;20043;-70
2021/12/11 03:42:53;;;;;;;4.20;1.52;;;3.40;79.90;;;1.55;89.98;94969.56;4923561;28;20117;-69
2021/12/11 03:45:25;;;;;;;3.72;1.38;;;3.40;79.90;;;1.53;89.43;94968.94;4931484;28;20417;-69
2021/12/11 03:47:56;;;;;;;3.75;1.40;;;3.30;79.80;;;1.56;90.10;94976.38;4964715;28;20062;-69
2021/12/11 03:50:22;;;;;;;6.45;2.30;;;3.40;80.10;;;1.56;89.68;94976.38;4963971;28;20039;-69
2021/12/11 03:52:49;;;;;;;5.63;2.35;;;3.30;80.10;;;1.57;90.00;94983.19;4951442;28;20035;-69
2021/12/11 03:55:29;;;;;;;3.15;2.10;;;3.40;80.30;;;1.58;90.15;94974.44;4965187;28;20038;-69
2021/12/11 03:57:59;;;;;;;6.40;3.22;;;3.40;80.20;;;1.58;90.18;94979.63;4914208;28;20109;-69
2021/12/11 04:00:34;;;;;;;3.65;2.03;;;3.40;80.20;;;1.56;90.06;94986.75;4951624;28;20511;-69
2021/12/11 04:03:04;;;;;;;3.80;1.50;;;3.30;80.30;;;1.57;90.51;94997.91;4960145;28;20043;-69
2021/12/11 04:05:32;;;;;;;3.58;1.70;;;3.30;80.60;;;1.56;90.37;94986.75;4955819;28;20035;-69
2021/12/11 04:07:58;;;;;;;3.50;1.83;;;3.30;80.70;;;1.56;90.35;94991.94;4956940;28;20032;-69
2021/12/11 04:10:27;;;;;;;3.58;1.70;;;3.30;80.60;;;1.54;90.50;94986.09;4954063;28;20058;-69
2021/12/11 04:12:57;;;;;;;4.82;2.03;;;3.30;80.60;;;1.54;90.18;94996.47;4966776;28;20039;-69
2021/12/11 04:15:23;;;;;;;2.92;1.80;;;3.30;80.50;;;1.55;90.63;95000.66;4952729;28;20034;-71
2021/12/11 04:17:49;;;;;;;2.53;1.70;;;3.30;80.70;;;1.53;90.21;95008.59;4934411;28;20050;-71
2021/12/11 04:20:19;;;;;;;3.38;2.05;;;3.30;80.80;;;1.51;90.36;95007.97;4955156;28;20039;-70
2021/12/11 04:22:45;;;;;;;4.60;2.13;;;3.40;80.90;;;1.52;90.58;95019.13;4927616;28;20156;-71
2021/12/11 04:25:12;;;;;;;5.95;1.80;;;3.40;80.90;;;1.51;90.70;95025.28;4951338;28;20032;-70
2021/12/11 04:27:38;;;;;;;2.90;1.58;;;3.30;81.00;;;1.48;90.83;95030.78;4964928;28;20042;-70
2021/12/11 04:30:09;;;;;;;4.45;2.28;;;3.30;80.90;;;1.49;90.66;95027.22;4955098;28;20625;-70
2021/12/11 04:32:36;;;;;;;3.33;1.67;;;3.30;80.60;;;1.49;90.76;95033.22;4970101;28;20089;-70
2021/12/11 04:35:06;;;;;;;5.22;1.80;;;3.20;81.00;;;1.46;90.42;95037.91;4935457;28;20043;-71
2021/12/11 04:37:32;;;;;;;2.30;1.50;;;3.30;80.90;;;1.49;90.17;95042.78;4960849;28;20087;-69
2021/12/11 04:40:12;;;;;;;4.05;1.90;;;3.30;80.90;;;1.49;90.87;95048.78;4958690;28;20118;-70
2021/12/11 04:43:03;;;;;;;2.72;1.63;;;3.30;80.90;;;1.48;90.46;95051.53;4940351;28;20121;-69
2021/12/11 04:45:45;;;;;;;3.63;1.65;;;3.20;80.80;;;1.47;90.51;95050.72;4944158;28;20046;-69
2021/12/11 04:51:27;;;;;;;4.05;1.60;;;3.20;81.10;;;1.47;90.24;95061.06;4939671;28;20081;-69
2021/12/11 04:54:48;;;;;;;3.90;1.70;;;3.20;81.20;;;1.48;91.10;95056.72;4951624;28;20090;-69
2021/12/11 04:57:11;;;;;;;3.38;1.67;;;3.30;81.10;;;1.49;91.08;95068.69;4954847;28;20030;-69
2021/12/11 05:02:57;;;;;;;3.53;1.70;;;3.20;81.40;;;1.44;91.64;95076.13;4962769;28;20065;-66
2021/12/11 05:10:35;;;;;;;4.50;2.00;;;3.10;82.20;;;1.38;91.74;95092.31;4970240;28;20078;-67
2021/12/11 05:13:01;;;;;;;3.28;1.88;;;3.10;82.20;;;1.37;91.40;95098.47;4963165;28;20043;-67
2021/12/11 05:15:31;;;;;;;3.95;1.80;;;3.10;82.50;;;1.34;92.17;95098.75;4947089;28;20648;-67
2021/12/11 05:17:57;;;;;;;7.35;3.50;;;3.10;82.70;;;1.32;92.45;95104.09;4938779;28;20031;-67
2021/12/11 05:20:26;;;;;;;4.20;2.90;;;3.10;82.90;;;1.30;92.43;95097.44;4949075;28;20510;-67
2021/12/11 05:22:51;;;;;;;4.53;2.25;;;3.10;83.00;;;1.31;92.60;95104.25;4970873;28;20117;-67
2021/12/11 05:25:17;;;;;;;4.72;1.80;;;3.10;83.10;;;1.29;92.31;95107.00;4968104;28;20042;-68
2021/12/11 05:27:44;;;;;;;5.00;1.85;;;3.10;82.90;;;1.29;92.87;95124.31;4946876;28;20413;-70
2021/12/11 05:30:23;;;;;;;3.25;1.85;;;3.10;83.10;;;1.22;93.62;95114.59;4944928;28;20039;-69
2021/12/11 05:32:48;;;;;;;3.45;1.83;;;3.00;83.60;;;1.21;92.68;95128.50;4945404;28;20047;-70
2021/12/11 05:35:15;;;;;;;3.60;1.50;;;3.00;83.50;;;1.19;92.77;95130.44;4969728;28;20097;-70
2021/12/11 05:37:41;;;;;;;4.28;1.83;;;3.10;83.30;;;1.23;92.78;95136.13;4970095;28;20030;-70
2021/12/11 05:40:07;;;;;;;4.15;1.40;;;3.10;83.30;;;1.20;93.47;95137.25;4953471;28;20097;-70
2021/12/11 05:42:33;;;;;;;3.08;1.80;;;3.10;83.20;;;1.18;93.12;95136.59;4969437;28;20421;-70
2021/12/11 05:44:59;;;;;;;3.55;1.60;;;3.10;83.30;;;1.18;93.65;95146.97;4953961;28;20039;-70
2021/12/11 05:47:25;;;;;;;2.58;1.70;;;3.00;83.40;;;1.17;93.22;95142.75;4969572;28;20046;-70
2021/12/11 05:49:50;;;;;;;6.03;1.70;;;2.90;83.50;;;1.17;93.11;95153.09;4969806;28;20023;-70
2021/12/11 05:52:16;;;;;;;3.03;1.40;;;3.00;83.40;;;1.14;93.19;95148.25;4953728;28;20561;-70
2021/12/11 05:54:44;;;;;;;2.83;1.60;;;2.90;83.40;;;1.14;93.47;95150.81;4966603;28;20027;-70
2021/12/11 05:57:12;;;;;;;3.05;1.60;;;2.90;83.50;;;1.14;93.33;95148.25;4966334;28;20086;-70
2021/12/11 05:59:38;;;;;;;3.60;1.67;;;3.00;83.40;;;1.13;93.13;95145.78;4967829;28;20400;-69
2021/12/11 06:02:16;;;;;;;4.63;1.85;;;3.00;83.10;;;1.15;93.50;95155.03;4953809;28;20038;-70
2021/12/11 06:04:43;;;;;;;3.53;1.40;;;3.00;83.10;;;1.14;93.12;95158.59;4954086;28;20030;-70
2021/12/11 06:07:11;;;;;;;2.67;1.42;;;3.00;83.10;;;1.15;93.54;95162.00;4953366;28;20503;-70
2021/12/11 06:09:37;;;;;;;2.13;1.40;;;3.00;83.00;;;1.16;93.65;95168.81;4937472;28;20391;-70
2021/12/11 06:12:10;;;;;;;3.22;1.70;;;3.00;82.80;;;1.19;93.55;95163.31;4953747;28;20031;-70
2021/12/11 06:14:36;;;;;;;2.70;1.40;;;3.00;82.80;;;1.20;93.49;95172.69;4948188;28;20050;-70
2021/12/11 06:17:05;;;;;;;2.92;1.60;;;3.10;82.70;;;1.19;93.20;95171.88;4957235;28;20514;-70
2021/12/11 06:19:31;;;;;;;3.80;1.80;;;3.10;82.60;;;1.20;92.87;95170.91;4957535;28;20039;-70
2021/12/11 06:21:57;;;;;;;3.08;1.40;;;3.10;82.50;;;1.23;92.58;95178.38;4957393;28;20062;-70
2021/12/11 06:24:26;;;;;;;5.13;2.00;;;3.10;82.30;;;1.22;92.76;95192.28;4957014;28;20117;-70
2021/12/11 06:26:53;;;;;;;4.22;1.77;;;3.10;82.20;;;1.26;92.82;95197.16;4942245;28;20125;-70
2021/12/11 06:29:19;;;;;;;3.65;1.70;;;3.10;82.30;;;1.25;93.10;95200.72;4956394;28;20405;-70
2021/12/11 06:31:45;;;;;;;3.10;1.40;;;3.10;82.10;;;1.29;92.61;95207.22;4957166;28;20042;-70
2021/12/11 06:34:11;;;;;;;2.47;1.40;;;3.20;82.00;;;1.27;92.50;95209.97;4956998;28;20039;-70
2021/12/11 06:36:36;;;;;;;3.22;1.67;;;3.20;81.70;;;1.29;92.47;95226.16;4957067;28;20118;-70
2021/12/11 06:39:06;;;;;;;4.20;1.75;;;3.20;81.70;;;1.33;92.95;95224.06;4940732;28;20383;-70
2021/12/11 06:41:35;;;;;;;2.60;1.63;;;3.20;81.60;;;1.34;92.66;95231.69;4941068;28;20034;-70
2021/12/11 06:44:01;;;;;;;4.93;1.63;;;3.10;81.70;;;1.32;92.42;95233.63;4938192;28;20387;-70
2021/12/11 06:46:27;;;;;;;3.20;1.50;;;3.20;81.60;;;1.37;92.13;95246.13;4937621;28;20118;-70
2021/12/11 06:48:53;;;;;;;2.05;1.38;;;3.20;81.60;;;1.38;92.14;95247.75;4972032;28;20038;-70
2021/12/11 06:51:19;;;;;;;4.45;1.35;;;3.30;81.30;;;1.40;92.21;95258.78;4957196;28;20462;-69
2021/12/11 06:53:50;;;;;;;2.38;1.40;;;3.20;81.70;;;1.39;92.09;95270.13;4955803;28;20669;-69
2021/12/11 06:56:17;;;;;;;1.83;1.20;;;3.30;81.60;;;1.41;92.53;95275.97;4953649;28;20031;-70
2021/12/11 06:58:43;;;;;;;5.22;2.20;;;3.30;81.70;;;1.40;92.33;95282.91;4953386;28;20028;-70
2021/12/11 07:01:08;;;;;;;3.50;1.90;;;3.20;82.10;;;1.38;92.38;95284.84;4953126;28;20067;-70
2021/12/11 07:03:35;;;;;;;2.45;1.83;;;3.20;82.20;;;1.39;93.11;95296.03;4972072;28;20085;-70
2021/12/11 07:06:00;;;;;;;4.93;2.80;;;3.20;82.60;;;1.36;92.76;95306.66;4953211;28;20046;-70
2021/12/11 07:08:28;;;;;;;8.07;3.72;;;3.10;83.10;;;1.37;93.37;95310.91;4937408;28;20126;-70
2021/12/11 07:10:54;;;;;;;7.22;3.58;;;3.20;83.40;;;1.34;93.44;95318.97;4937954;28;20031;-70
2021/12/11 07:13:20;;;;;;;9.73;4.90;;;3.20;83.50;;;1.32;94.13;95326.06;4921147;28;20062;-70
2021/12/11 07:15:45;;;;;;;15.55;9.07;;;3.10;84.10;;;1.27;94.36;95323.13;4954493;28;20059;-70
2021/12/11 07:18:11;;;;;;;14.95;8.45;;;3.10;84.60;;;1.26;94.79;95331.88;4953604;28;20031;-70
2021/12/11 07:20:37;;;;;;;10.93;7.05;;;3.10;84.40;;;1.21;94.91;95335.72;4969226;28;20046;-70
2021/12/11 07:23:04;;;;;;;5.85;3.70;;;3.00;84.70;;;1.20;94.62;95347.06;4971629;28;20031;-70
2021/12/11 07:25:56;;;;;;;11.32;5.47;;;3.00;84.60;;;1.18;95.93;95356.75;4940176;28;20148;-70
2021/12/11 07:28:22;;;;;;;5.38;3.55;;;3.10;84.80;;;1.18;95.71;95358.53;4971068;28;20042;-70
2021/12/11 07:30:49;;;;;;;6.45;3.20;;;3.10;84.50;;;1.16;95.64;95363.84;4971650;28;20509;-71
2021/12/11 07:33:15;;;;;;;4.38;2.90;;;3.10;84.80;;;1.13;95.70;95364.16;4946831;28;20039;-70
2021/12/11 07:35:41;;;;;;;6.10;2.97;;;3.00;84.90;;;1.09;95.35;95370.56;4968481;28;20727;-69
2021/12/11 07:38:07;;;;;;;5.18;2.63;;;2.90;85.00;;;1.08;95.85;95376.72;4968409;28;20126;-70
2021/12/11 07:40:45;;;;;;;3.90;3.05;;;3.00;85.40;;;1.05;96.67;95387.38;4943805;28;20032;-70
2021/12/11 07:43:12;;;;;;;4.18;3.08;;;2.90;85.30;;;1.09;96.18;95393.88;4935898;28;20042;-70
2021/12/11 07:45:38;;;;;;;3.85;2.65;;;3.10;84.90;;;1.09;95.77;95399.06;4953164;28;20050;-70
2021/12/11 07:48:04;;;;;;;3.72;2.78;;;3.00;84.90;;;1.11;96.18;95407.50;4952349;28;20039;-70
2021/12/11 07:50:30;;;;;;;4.68;2.85;;;3.00;84.80;;;1.12;96.49;95409.13;4961214;28;20042;-70
2021/12/11 07:52:56;;;;;;;3.47;2.55;;;3.10;84.90;;;1.14;96.07;95415.00;4955227;28;20055;-70
2021/12/11 07:55:22;;;;;;;3.53;2.58;;;3.20;84.20;;;1.15;95.78;95421.81;4946771;28;20062;-69
2021/12/11 07:57:47;;;;;;;11.90;7.57;;;3.10;84.20;;;1.19;96.13;95425.72;4951965;28;20031;-70
2021/12/11 08:00:17;;;;;;;7.32;4.82;;;3.20;84.90;;;1.27;97.03;95429.34;4957857;28;20039;-68
2021/12/11 08:02:43;;;;;;;4.00;2.88;;;3.40;84.40;;;1.27;96.10;95431.94;4951927;28;20033;-70
2021/12/11 08:05:09;;;;;;;4.82;2.88;;;3.40;84.00;;;1.27;95.96;95435.31;4937602;28;20035;-68
2021/12/11 08:07:34;;;;;;;4.50;3.22;;;3.30;83.70;;;1.28;95.73;95439.53;4970833;28;20053;-71
2021/12/11 08:10:00;;;;;;;4.57;3.28;;;3.20;83.60;;;1.29;96.24;95442.94;4951415;28;20032;-67
2021/12/11 08:12:26;;;;;;;5.28;3.50;;;3.20;83.90;;;1.29;95.95;95443.75;4960577;28;20027;-68
2021/12/11 08:14:52;;;;;;;9.90;7.38;;;3.20;83.70;;;1.30;95.38;95455.75;4968067;28;20141;-68
2021/12/11 08:17:18;;;;;;;9.73;6.95;;;3.20;84.00;;;1.28;96.09;95449.09;4984114;28;20363;-68
2021/12/11 08:19:44;;;;;;;9.95;6.68;;;3.20;84.10;;;1.32;96.28;95465.97;4947863;28;20034;-67
2021/12/11 08:22:10;;;;;;;4.72;3.95;;;3.20;84.10;;;1.32;95.73;95466.78;4970271;28;20045;-69
2021/12/11 08:24:38;;;;;;;5.15;4.00;;;3.20;84.10;;;1.35;95.79;95465.66;4969811;28;20049;-67
2021/12/11 08:27:11;;;;;;;4.63;3.78;;;3.30;83.80;;;1.36;96.31;95477.66;4963554;28;20524;-66
2021/12/11 08:29:38;;;;;;;3.75;3.35;;;3.30;83.80;;;1.37;95.66;95479.31;4949841;28;20395;-68
2021/12/11 08:32:05;;;;;;;4.88;4.13;;;3.30;83.40;;;1.39;95.94;95487.75;4954950;28;20042;-69
2021/12/11 08:34:31;;;;;;;5.97;4.57;;;3.40;83.50;;;1.42;95.85;95492.63;4958823;28;20038;-68
2021/12/11 08:36:57;;;;;;;5.38;4.10;;;3.40;83.50;;;1.46;95.51;95494.78;4951249;28;20432;-69
2021/12/11 08:39:23;;;;;;;4.10;3.70;;;3.50;83.50;;;1.49;95.43;95504.03;4946032;28;20095;-69
2021/12/11 08:41:51;;;;;;;4.40;3.83;;;3.50;82.60;;;1.49;95.29;95510.03;4970191;28;20030;-69
2021/12/11 08:44:19;;;;;;;4.60;3.47;;;3.50;82.60;;;1.48;95.26;95515.38;4965649;28;20046;-68
2021/12/11 08:46:57;;;;;;;4.90;3.80;;;3.50;82.70;;;1.50;95.08;95524.63;4962998;28;20087;-68
2021/12/11 08:49:27;;;;;;;5.05;4.13;;;3.40;83.20;;;1.51;95.46;95535.78;4943753;28;20061;-68
2021/12/11 08:52:29;;;;;;;5.05;4.00;;;3.50;83.00;;;1.51;95.54;95544.38;4941957;28;20043;-69
2021/12/11 08:54:57;;;;;;;4.90;4.10;;;3.50;83.20;;;1.53;95.30;95542.47;4943197;28;20476;-69
2021/12/11 08:57:27;;;;;;;5.97;3.72;;;3.60;82.90;;;1.58;95.10;95544.59;4950564;28;20213;-68
2021/12/11 08:59:57;;;;;;;7.72;4.30;;;3.60;82.50;;;1.62;95.08;95558.13;4960025;28;20450;-68
2021/12/11 09:02:33;;;;;;;7.90;5.38;;;3.70;82.30;;;1.60;94.83;95550.47;4954281;28;20403;-69
2021/12/11 09:05:24;;;;;;;9.10;4.85;;;3.60;82.40;;;1.59;95.31;95556.63;4929694;28;20023;-69
2021/12/11 09:08:01;;;;;;;5.68;4.60;;;3.40;83.10;;;1.60;95.09;95571.22;4936099;28;20126;-70
2021/12/11 09:10:37;;;;;;;4.78;4.05;;;3.50;83.10;;;1.62;94.79;95578.84;4976263;28;20030;-69
2021/12/11 09:13:24;;;;;;;6.68;4.25;;;3.60;82.20;;;1.64;95.02;95585.50;4953326;28;20114;-69
2021/12/11 09:16:05;;;;;;;4.72;4.13;;;3.70;82.30;;;1.69;95.37;95588.47;4936789;28;20031;-69
2021/12/11 09:18:36;;;;;;;5.55;3.88;;;3.80;82.30;;;1.72;94.91;95597.72;4950711;28;20046;-68
2021/12/11 09:21:33;;;;;;;5.25;4.15;;;3.70;82.00;;;1.76;94.60;95605.06;4935249;28;20031;-68
2021/12/11 09:24:37;;;;;;;5.82;4.60;;;3.80;81.70;;;1.78;94.94;95603.13;4940816;28;20123;-68
2021/12/11 09:27:13;;;;;;;5.45;4.32;;;3.80;82.30;;;1.79;95.08;95607.34;4965719;28;20046;-66
2021/12/11 09:29:50;;;;;;;6.10;4.78;;;3.80;82.30;;;1.84;94.94;95612.94;4950081;28;20495;-67
2021/12/11 09:32:45;;;;;;;5.63;4.80;;;4.00;82.10;;;1.90;95.03;95621.09;4936899;28;20049;-70
2021/12/11 09:35:31;;;;;;;4.90;3.90;;;4.10;81.70;;;1.93;94.87;95625.97;4955438;28;20499;-68
2021/12/11 09:38:01;;;;;;;5.47;4.28;;;4.00;81.50;;;1.93;94.48;95631.16;4950640;28;20045;-67
2021/12/11 09:40:39;;;;;;;4.93;4.38;;;4.00;81.50;;;1.93;93.84;95636.34;4965960;28;20448;-68
2021/12/11 09:43:04;;;;;;;5.05;4.50;;;3.80;81.50;;;1.92;93.53;95642.50;4959207;28;20046;-69
2021/12/11 09:45:38;;;;;;;6.25;4.85;;;3.80;81.40;;;1.88;93.97;95636.00;4951894;28;20043;-69
2021/12/11 09:48:15;;;;;;;6.07;5.13;;;3.70;82.00;;;1.86;93.44;95645.69;4957029;28;20031;-69
2021/12/11 09:50:54;;;;;;;5.07;4.57;;;3.70;82.00;;;1.83;93.82;95642.44;4968850;28;20041;-69
2021/12/11 09:53:23;;;;;;;6.10;5.15;;;3.70;81.90;;;1.87;94.06;95642.13;4917199;28;20515;-68
2021/12/11 09:55:49;;;;;;;7.60;5.63;;;3.90;81.80;;;1.85;93.50;95650.06;4950619;28;20054;-67
2021/12/11 09:58:22;;;;;;;7.45;6.15;;;3.80;81.90;;;1.88;93.80;95654.13;4957633;28;20427;-68
2021/12/11 10:00:56;;;;;;;6.82;5.82;;;3.90;81.20;;;1.90;93.50;95652.22;4954383;28;20053;-69
2021/12/11 10:03:26;;;;;;;6.07;5.45;;;3.90;81.50;;;1.88;93.79;95651.53;4930859;28;20045;-68
2021/12/11 10:06:12;;;;;;;5.90;5.30;;;3.80;81.70;;;1.87;93.55;95662.88;4950918;28;20067;-68
2021/12/11 10:08:42;;;;;;;5.97;5.32;;;3.80;81.90;;;1.81;93.80;95659.91;4951735;28;20031;-69
2021/12/11 10:11:24;;;;;;;5.82;5.22;;;3.60;82.50;;;1.83;93.88;95659.78;4953560;28;20038;-69
2021/12/11 10:13:52;;;;;;;12.98;9.75;;;3.80;82.40;;;1.85;94.14;95670.81;4960881;28;20074;-69
2021/12/11 10:16:24;;;;;;;17.65;12.40;;;3.80;82.40;;;1.86;93.78;95676.81;4935525;28;20495;-70
2021/12/11 10:18:51;;;;;;;7.75;6.82;;;3.70;82.40;;;1.86;93.66;95674.22;4963402;28;20577;-71
2021/12/11 10:21:24;;;;;;;7.93;6.78;;;3.80;82.00;;;1.90;93.72;95683.34;4936681;28;20375;-68
2021/12/11 10:23:52;;;;;;;10.75;9.13;;;3.80;82.00;;;1.88;93.99;95685.25;4953257;28;20035;-71
2021/12/11 10:26:19;;;;;;;9.95;8.45;;;3.70;82.20;;;1.86;93.96;95682.81;4953213;28;20035;-70
2021/12/11 10:28:51;;;;;;;7.18;6.30;;;3.70;82.00;;;1.86;93.20;95697.56;4936322;28;20039;-71
2021/12/11 10:31:39;;;;;;;7.63;5.90;;;3.80;81.80;;;1.88;93.68;95693.03;4953370;28;20106;-71
2021/12/11 10:34:09;;;;;;;6.65;5.95;;;3.80;81.60;;;1.87;93.45;95700.00;4923020;29;20119;-70
2021/12/11 10:36:40;;;;;;;6.22;5.43;;;3.90;81.50;;;1.86;93.52;95707.94;4949913;28;20039;-71
2021/12/11 10:39:08;;;;;;;;;;;3.80;81.50;;;1.87;93.70;95712.16;4965071;28;20487;-69
2021/12/11 10:41:34;;;;;;;8.02;6.15;;;3.80;81.30;;;1.83;93.36;95709.84;4952813;28;19929;-69
2021/12/11 10:44:22;;;;;;;6.63;5.90;;;3.80;81.50;;;1.79;93.27;95715.44;4922928;29;20031;-70
2021/12/11 10:47:08;;;;;;;6.70;5.60;;;3.60;81.90;;;1.78;93.00;95727.59;4937953;28;20063;-72
2021/12/11 10:49:34;;;;;;;9.73;7.32;;;3.70;81.70;;;1.80;93.27;95736.03;4948439;28;20115;-73
2021/12/11 10:52:23;;;;;;;21.92;13.57;;;3.80;81.80;;;1.82;93.19;95741.94;4966369;28;20037;-70
2021/12/11 10:54:49;;;;;;;8.75;6.68;;;3.90;81.10;;;1.76;93.00;95750.25;4963535;28;20422;-71
2021/12/11 10:57:16;;;;;;;8.40;6.38;;;3.60;81.60;;;1.76;92.66;95755.44;4945829;28;20037;-70
2021/12/11 10:59:43;;;;;;;7.05;5.75;;;3.60;81.60;;;1.73;93.00;95758.34;4941718;28;20041;-69
2021/12/11 11:02:36;;;;;;;13.80;10.68;;;3.50;81.70;;;1.74;93.21;95767.75;4961215;28;20135;-70